Taylor, North Dakota
Current Conditions -  °F | °C
As of 11:56 AM on Saturday 25 Oct 2014 (Local Time) from KDIK Reporting Station
Clear Clear  
Wind Chill: 59°   Ceiling: Unl
Heat Index: 59°   Visibility: 10mi
Dew Point: 30°   Wind: 9mph
Humidity: 33%   Direction: 150°SSE
Pressure: 30.09"   Gusts: NA
Location:  46.9°N, 102.43°W
Report Text: KDIK 251756Z AUTO 15008KT 10SM CLR 15/M01 A3009 RMK AO2 SLP192 T01501011 10156 20006 58014
Loading
Personal Weather Stations






























Interactive Weather Map
Tropical Storm Tracking
New forecast layout! Learn more

10-Day Weather Forecast

Advertisements
Track Severe Weather on mobile